Time;durP1;ratioP1;P1;durP2;ratioP2;P2;SDS_P1;SDS_P2;PMS_P1;PMS_P2;Temp;Humidity;BMP_temperature;BMP_pressure;BME280_temperature;BME280_humidity;BME280_pressure;Samples;Min_cycle;Max_cycle;Signal;HPM_P1;HPM_P2
2021/12/11 00:00:33;;;;;;;49.37;45.53;;;;;;;6.56;87.44;100371.59;2090621;28;20492;-84
2021/12/11 00:01:40;;;;;;;49.17;45.23;;;;;;;5.29;87.17;100157.63;2091336;28;20972;-84
2021/12/11 00:02:44;;;;;;;51.57;47.43;;;;;;;6.32;86.92;100326.22;2091459;28;20533;-84
2021/12/11 00:03:49;;;;;;;49.97;45.97;;;;;;;6.58;86.93;100375.00;2090026;28;20457;-84
2021/12/11 00:04:57;;;;;;;50.00;46.10;;;;;;;6.58;87.39;100377.66;2091100;28;20816;-84
2021/12/11 00:06:05;;;;;;;47.43;43.67;;;;;;;5.75;87.26;100248.38;2090368;28;20976;-84
2021/12/11 00:07:11;;;;;;;49.93;46.00;;;;;;;6.18;87.49;100349.16;2092362;28;20442;-84
2021/12/11 00:08:19;;;;;;;49.40;45.43;;;;;;;5.49;87.83;100210.22;2091288;28;20580;-85
2021/12/11 00:09:25;;;;;;;48.67;44.73;;;;;;;6.40;87.12;100367.25;2089956;28;20454;-84
2021/12/11 00:10:33;;;;;;;49.93;46.00;;;;;;;6.40;87.31;100358.41;2090156;28;20491;-84
2021/12/11 00:11:40;;;;;;;49.73;46.00;;;;;;;6.59;87.87;100390.81;2089727;28;20481;-84
2021/12/11 00:12:46;;;;;;;55.50;51.53;;;;;;;6.58;87.32;100391.75;2091897;28;20548;-84
2021/12/11 00:13:48;;;;;;;49.03;45.20;;;;;;;5.52;87.10;100223.28;2090468;28;20491;-84
2021/12/11 00:14:54;;;;;;;48.33;44.70;;;;;;;6.42;87.39;100372.44;2093048;28;20461;-84
2021/12/11 00:15:57;;;;;;;50.10;46.37;;;;;;;6.45;87.51;100385.50;2090412;28;20482;-84
2021/12/11 00:16:59;;;;;;;50.23;46.33;;;;;;;6.15;87.56;100327.25;2094474;28;20590;-84
2021/12/11 00:18:04;;;;;;;50.03;46.23;;;;;;;6.61;87.56;100412.81;2092220;28;20548;-84
2021/12/11 00:19:07;;;;;;;51.13;47.40;;;;;;;6.61;87.25;100410.16;2092593;28;20484;-84
2021/12/11 00:20:18;;;;;;;51.90;48.03;;;;;;;6.49;87.58;100394.13;2092113;28;20458;-84
2021/12/11 00:21:22;;;;;;;52.17;48.03;;;;;;;6.62;87.23;100411.84;2092266;28;20502;-84
2021/12/11 00:22:26;;;;;;;52.73;48.83;;;;;;;6.55;87.02;100399.91;2093500;28;20537;-84
2021/12/11 00:23:31;;;;;;;51.70;48.03;;;;;;;6.63;87.67;100418.03;2091806;28;20527;-84
2021/12/11 00:24:35;;;;;;;50.43;46.63;;;;;;;6.63;87.51;100413.56;2092214;28;20973;-84
2021/12/11 00:25:43;;;;;;;51.20;47.10;;;;;;;6.63;87.57;100418.88;2094261;28;20493;-84
2021/12/11 00:26:51;;;;;;;50.97;47.20;;;;;;;6.42;87.52;100388.34;2091347;28;20812;-84
2021/12/11 00:27:59;;;;;;;52.43;48.63;;;;;;;6.27;87.41;100355.66;2093056;28;20512;-84
2021/12/11 00:29:01;;;;;;;52.03;48.17;;;;;;;6.64;87.74;100422.38;2093350;28;20481;-84
2021/12/11 00:30:03;;;;;;;55.17;50.97;;;;;;;6.63;87.30;100424.19;2092386;28;20464;-84
2021/12/11 00:31:05;;;;;;;51.33;47.60;;;;;;;6.17;87.59;100350.06;2091069;28;20545;-84
2021/12/11 00:32:11;;;;;;;57.03;52.53;;;;;;;6.09;87.08;100338.25;2093121;28;20457;-84
2021/12/11 00:33:17;;;;;;;54.00;49.90;;;;;;;6.63;87.49;100434.78;2090650;28;20450;-84
2021/12/11 00:34:20;;;;;;;53.57;49.87;;;;;;;6.56;87.54;100427.31;2093619;28;20503;-85
2021/12/11 00:35:22;;;;;;;53.40;49.30;;;;;;;6.64;87.12;100446.25;2093486;28;20480;-84
2021/12/11 00:36:28;;;;;;;52.93;49.03;;;;;;;6.16;87.11;100371.38;2091936;28;20518;-84
2021/12/11 00:37:30;;;;;;;49.77;45.97;;;;;;;6.41;87.52;100413.19;2092980;28;20458;-84
2021/12/11 00:38:34;;;;;;;50.30;46.50;;;;;;;6.64;87.97;100464.81;2091120;28;20461;-84
2021/12/11 00:39:45;;;;;;;55.07;51.27;;;;;;;6.42;87.86;100412.22;2091974;28;20465;-84
2021/12/11 00:40:51;;;;;;;52.90;48.80;;;;;;;6.63;87.66;100456.00;2092056;28;20540;-84
2021/12/11 00:41:55;;;;;;;52.27;48.43;;;;;;;6.65;86.86;100455.06;2092861;28;20541;-84
2021/12/11 00:43:03;;;;;;;53.53;49.73;;;;;;;6.41;87.63;100413.19;2092341;28;20937;-84
2021/12/11 00:44:05;;;;;;;53.13;49.07;;;;;;;6.49;88.02;100439.25;2092330;28;20207;-84
2021/12/11 00:45:13;;;;;;;49.13;45.47;;;;;;;6.49;87.55;100434.78;2091623;28;20445;-84
2021/12/11 00:46:21;;;;;;;51.33;47.57;;;;;;;6.61;87.58;100463.22;2091264;28;20472;-84
2021/12/11 00:47:26;;;;;;;50.60;46.90;;;;;;;6.47;87.45;100428.72;2092918;28;20470;-84
2021/12/11 00:48:28;;;;;;;52.50;48.47;;;;;;;6.69;87.80;100468.06;2091511;28;20946;-84
2021/12/11 00:49:30;;;;;;;51.27;47.53;;;;;;;6.69;86.74;100491.09;2091245;28;20469;-84
2021/12/11 00:50:36;;;;;;;50.67;46.57;;;;;;;6.70;87.67;100482.16;2093357;28;20512;-84
2021/12/11 00:51:38;;;;;;;50.20;46.37;;;;;;;6.35;87.41;100422.38;2090664;28;20487;-84
2021/12/11 00:52:43;;;;;;;52.53;48.73;;;;;;;6.63;87.61;100463.97;2093047;28;21039;-84
2021/12/11 00:53:49;;;;;;;49.63;45.67;;;;;;;6.73;87.48;100472.22;2091136;28;20462;-84
2021/12/11 00:54:50;;;;;;;52.73;48.97;;;;;;;6.51;87.19;100443.50;2091806;28;20886;-84
2021/12/11 00:55:58;;;;;;;51.80;47.80;;;;;;;6.73;87.78;100482.00;2094430;28;20491;-84
2021/12/11 00:56:59;;;;;;;48.03;44.30;;;;;;;6.74;87.87;100484.56;2091789;28;20454;-84
2021/12/11 00:58:05;;;;;;;48.87;44.97;;;;;;;6.49;87.51;100445.38;2090923;28;21891;-84
2021/12/11 00:59:10;;;;;;;47.37;43.97;;;;;;;6.60;87.34;100477.41;2091528;28;20221;-84
2021/12/11 01:00:17;;;;;;;46.90;43.40;;;;;;;6.45;87.66;100448.34;2091854;28;20480;-84
2021/12/11 01:01:23;;;;;;;45.77;42.07;;;;;;;6.56;87.60;100464.44;2090323;28;20912;-83
2021/12/11 01:02:24;;;;;;;42.17;39.00;;;;;;;6.75;87.48;100501.31;2091160;28;20469;-84
2021/12/11 01:03:31;;;;;;;43.93;40.73;;;;;;;6.67;87.33;100506.22;2094121;28;20956;-84
2021/12/11 01:04:40;;;;;;;44.60;40.93;;;;;;;6.75;87.12;100514.59;2090920;28;20450;-84
2021/12/11 01:05:44;;;;;;;44.77;41.07;;;;;;;5.31;87.19;100273.06;2091177;28;20447;-85
2021/12/11 01:06:49;;;;;;;44.20;40.50;;;;;;;6.76;87.37;100514.50;2091080;28;20454;-84
2021/12/11 01:07:52;;;;;;;45.17;41.13;;;;;;;6.77;87.42;100515.34;2092103;28;20521;-84
2021/12/11 01:08:58;;;;;;;47.00;43.30;;;;;;;6.48;87.33;100464.03;2090431;28;20480;-85
2021/12/11 01:10:07;;;;;;;45.50;42.00;;;;;;;6.78;88.13;100519.69;2090363;28;20299;-84
2021/12/11 01:11:15;;;;;;;48.47;44.77;;;;;;;6.30;87.14;100437.69;2094660;28;20917;-84
2021/12/11 01:12:24;;;;;;;47.27;43.53;;;;;;;6.38;87.27;100454.00;2092271;28;20504;-85
2021/12/11 01:13:30;;;;;;;50.00;46.13;;;;;;;6.78;87.14;100522.34;2091941;28;20576;-85
2021/12/11 01:14:37;;;;;;;50.07;46.50;;;;;;;6.78;87.38;100525.00;2092323;28;20492;-84
2021/12/11 01:15:45;;;;;;;51.23;47.57;;;;;;;6.79;87.48;100521.41;2093075;28;20465;-84
2021/12/11 01:16:52;;;;;;;51.37;47.50;;;;;;;6.58;87.38;100484.63;2092290;28;20709;-84
2021/12/11 01:18:10;;;;;;;50.97;46.97;;;;;;;6.54;87.21;100488.41;2090940;28;20462;-84
2021/12/11 01:19:17;;;;;;;50.13;46.27;;;;;;;6.47;87.29;100476.47;2091343;28;21031;-84
2021/12/11 01:20:22;;;;;;;48.13;44.63;;;;;;;6.64;87.24;100507.28;2089476;28;20527;-84
2021/12/11 01:21:32;;;;;;;48.53;44.77;;;;;;;6.58;87.44;100489.94;2091819;28;20553;-84
2021/12/11 01:22:36;;;;;;;47.50;44.20;;;;;;;6.80;87.73;100536.41;2090667;28;20450;-84
2021/12/11 01:24:08;;;;;;;46.63;43.03;;;;;;;6.57;87.49;100522.72;2092818;28;20557;-84
2021/12/11 01:25:14;;;;;;;43.30;39.83;;;;;;;6.79;87.39;100545.31;2089204;28;20473;-84
2021/12/11 01:26:20;;;;;;;43.80;40.23;;;;;;;6.54;87.26;100507.00;2090847;28;20462;-84
2021/12/11 01:27:25;;;;;;;43.73;40.50;;;;;;;6.37;86.79;100472.69;2090042;28;20493;-84
2021/12/11 01:28:26;;;;;;;43.80;40.60;;;;;;;6.72;86.80;100554.59;2089347;28;20492;-84
2021/12/11 01:29:29;;;;;;;45.13;41.83;;;;;;;6.79;87.25;100548.81;2092748;28;21006;-84
2021/12/11 01:30:34;;;;;;;43.70;40.43;;;;;;;6.44;87.23;100492.56;2090375;28;20227;-84
2021/12/11 01:31:37;;;;;;;46.37;42.70;;;;;;;6.58;87.30;100516.47;2091407;28;20443;-84
2021/12/11 01:32:39;;;;;;;48.30;44.70;;;;;;;6.51;87.12;100501.84;2090452;28;20458;-84
2021/12/11 01:33:42;;;;;;;51.17;47.00;;;;;;;6.81;87.34;100548.72;2090768;28;20508;-85
2021/12/11 01:34:46;;;;;;;48.57;44.73;;;;;;;6.65;87.41;100532.88;2092973;28;20522;-84
2021/12/11 01:35:47;;;;;;;46.57;43.10;;;;;;;6.80;87.83;100569.09;2090842;28;20455;-84
2021/12/11 01:36:50;;;;;;;47.40;43.83;;;;;;;5.83;87.39;100407.75;2092070;28;20494;-84
2021/12/11 01:38:00;;;;;;;47.43;43.77;;;;;;;6.56;87.22;100518.34;2093071;28;20454;-84
2021/12/11 01:39:09;;;;;;;46.70;43.23;;;;;;;6.39;87.74;100489.34;2092771;28;21021;-84
2021/12/11 01:40:14;;;;;;;47.10;43.40;;;;;;;6.33;87.63;100481.72;2090846;28;20538;-84
2021/12/11 01:41:21;;;;;;;45.43;41.73;;;;;;;6.31;86.95;100505.72;2090520;28;20478;-84
2021/12/11 01:42:26;;;;;;;44.37;41.17;;;;;;;6.56;87.88;100533.44;2091105;28;20954;-84
2021/12/11 01:43:30;;;;;;;44.73;41.40;;;;;;;6.81;87.38;100572.59;2088506;28;20955;-84
2021/12/11 01:44:34;;;;;;;44.83;40.97;;;;;;;6.57;87.81;100533.34;2091878;28;20199;-84
2021/12/11 01:45:38;;;;;;;46.23;42.60;;;;;;;6.30;87.39;100500.50;2092637;28;20527;-84
2021/12/11 01:46:42;;;;;;;45.00;41.63;;;;;;;6.30;87.21;100487.25;2090694;28;20457;-84
2021/12/11 01:47:46;;;;;;;50.57;46.77;;;;;;;5.44;86.73;100350.88;2092442;28;20509;-84
2021/12/11 01:48:51;;;;;;;46.07;42.90;;;;;;;6.82;87.34;100577.84;2092509;28;20465;-84
2021/12/11 01:49:57;;;;;;;48.10;44.67;;;;;;;6.81;87.17;100581.41;2091184;28;20458;-84
2021/12/11 01:51:03;;;;;;;47.33;43.73;;;;;;;6.33;86.84;100498.53;2090854;28;20596;-83
2021/12/11 01:52:13;;;;;;;49.70;46.13;;;;;;;5.76;87.40;100405.53;2091494;28;20496;-84
2021/12/11 01:53:21;;;;;;;46.13;42.73;;;;;;;6.33;87.26;100527.69;2091768;28;20482;-83
2021/12/11 01:54:27;;;;;;;44.93;41.70;;;;;;;6.31;87.07;100505.72;2093319;28;20459;-84
2021/12/11 01:55:36;;;;;;;46.67;43.23;;;;;;;6.81;86.89;100585.88;2092001;28;20886;-84
2021/12/11 01:56:43;;;;;;;48.23;44.67;;;;;;;6.30;87.40;100521.72;2091635;28;20499;-84
2021/12/11 01:57:50;;;;;;;46.50;43.40;;;;;;;6.81;87.04;100594.69;2091459;28;21069;-84
2021/12/11 01:58:58;;;;;;;45.80;42.17;;;;;;;5.61;86.75;100421.41;2090276;28;20192;-84
2021/12/11 02:00:10;;;;;;;43.80;40.37;;;;;;;6.80;87.00;100603.63;2091066;28;20942;-84
2021/12/11 02:01:14;;;;;;;47.23;43.53;;;;;;;5.32;87.06;100393.09;2092381;28;20494;-84
2021/12/11 02:02:25;;;;;;;47.50;43.97;;;;;;;5.56;86.41;100402.28;2092940;28;20466;-84
2021/12/11 02:03:30;;;;;;;47.83;44.43;;;;;;;6.80;86.95;100611.59;2093009;28;20478;-84
2021/12/11 02:04:36;;;;;;;50.50;47.13;;;;;;;6.11;86.96;100498.94;2090582;28;20466;-84
2021/12/11 02:05:38;;;;;;;50.40;46.83;;;;;;;6.80;87.19;100611.59;2091277;28;20211;-84
2021/12/11 02:06:45;;;;;;;52.40;48.30;;;;;;;6.80;87.07;100624.84;2087214;28;20545;-84
2021/12/11 02:07:49;;;;;;;48.80;45.50;;;;;;;6.68;86.85;100591.06;2088341;28;20211;-84
2021/12/11 02:08:50;;;;;;;50.23;46.60;;;;;;;5.38;86.76;100384.78;2094128;28;20481;-84
2021/12/11 02:09:57;;;;;;;51.13;47.67;;;;;;;6.36;87.08;100548.72;2092177;28;20230;-84
2021/12/11 02:11:00;;;;;;;49.37;45.63;;;;;;;5.67;86.80;100430.81;2091061;28;20219;-84
2021/12/11 02:12:12;;;;;;;50.27;46.43;;;;;;;6.74;87.16;100613.72;2089016;28;20472;-84
2021/12/11 02:13:21;;;;;;;49.03;45.57;;;;;;;6.38;87.06;100553.94;2090128;28;20449;-84
2021/12/11 02:14:31;;;;;;;46.30;42.73;;;;;;;5.35;86.92;100384.97;2091215;28;20521;-84
2021/12/11 02:15:37;;;;;;;50.37;46.50;;;;;;;6.79;87.13;100630.25;2089067;28;20466;-84
2021/12/11 02:16:43;;;;;;;46.50;43.10;;;;;;;6.79;86.75;100631.09;2091884;28;20989;-84
2021/12/11 02:17:51;;;;;;;49.97;46.07;;;;;;;6.19;86.90;100533.78;2091096;28;20526;-84
2021/12/11 02:18:58;;;;;;;45.60;42.33;;;;;;;6.79;86.54;100633.75;2091982;28;20821;-84
2021/12/11 02:20:01;;;;;;;50.60;47.10;;;;;;;6.80;86.73;100634.63;2090999;28;20952;-84
2021/12/11 02:21:06;;;;;;;49.73;46.23;;;;;;;6.39;87.08;100571.56;2091523;28;21915;-84
2021/12/11 02:22:13;;;;;;;49.93;46.13;;;;;;;6.63;86.88;100615.22;2091291;28;20466;-84
2021/12/11 02:23:16;;;;;;;50.90;47.30;;;;;;;5.50;86.82;100430.91;2090846;28;20523;-84
2021/12/11 02:24:24;;;;;;;50.33;46.73;;;;;;;6.63;86.12;100625.00;2092396;28;20532;-84
2021/12/11 02:25:29;;;;;;;49.60;46.13;;;;;;;6.79;86.44;100649.66;2089374;28;20471;-84
2021/12/11 02:26:34;;;;;;;51.23;47.27;;;;;;;5.55;86.75;100440.28;2092079;28;20470;-85
2021/12/11 02:27:41;;;;;;;45.90;42.60;;;;;;;6.55;86.73;100612.16;2090976;28;20465;-84
2021/12/11 02:28:46;;;;;;;50.13;46.43;;;;;;;6.78;86.76;100655.06;2091632;28;20497;-84
2021/12/11 02:29:52;;;;;;;47.33;43.83;;;;;;;6.30;86.65;100598.63;2092207;28;20547;-84
2021/12/11 02:31:06;;;;;;;48.70;44.93;;;;;;;6.77;87.16;100666.66;2089992;28;20523;-84
2021/12/11 02:32:13;;;;;;;47.13;43.33;;;;;;;5.93;86.47;100524.66;2092873;28;20497;-84
2021/12/11 02:33:20;;;;;;;45.43;42.03;;;;;;;6.77;86.72;100658.69;2090649;28;20466;-84
2021/12/11 02:34:26;;;;;;;46.30;42.80;;;;;;;5.41;86.40;100446.38;2091058;28;20458;-84
2021/12/11 02:35:32;;;;;;;47.67;44.17;;;;;;;6.76;86.24;100667.56;2093016;28;21128;-84
2021/12/11 02:36:37;;;;;;;48.03;44.57;;;;;;;5.80;86.22;100519.25;2089504;28;20464;-84
2021/12/11 02:37:44;;;;;;;45.63;42.03;;;;;;;6.50;86.35;100630.16;2092463;28;20200;-84
2021/12/11 02:38:51;;;;;;;46.40;42.90;;;;;;;6.27;86.59;100593.50;2092319;28;20518;-85
2021/12/11 02:39:55;;;;;;;47.60;44.00;;;;;;;6.67;86.21;100662.81;2091560;28;20507;-84
2021/12/11 02:41:01;;;;;;;49.33;45.33;;;;;;;6.45;86.34;100623.41;2090668;28;20464;-83
2021/12/11 02:42:08;;;;;;;48.47;44.97;;;;;;;6.75;86.40;100687.13;2091311;28;20487;-84
2021/12/11 02:43:17;;;;;;;48.73;45.13;;;;;;;6.33;85.99;100624.97;2091701;28;20465;-85
2021/12/11 02:44:22;;;;;;;47.00;43.77;;;;;;;6.57;86.17;100655.41;2090895;28;20511;-84
2021/12/11 02:45:34;;;;;;;48.70;45.13;;;;;;;6.05;86.33;100565.56;2090709;28;20469;-84
2021/12/11 02:46:39;;;;;;;46.20;43.07;;;;;;;6.72;85.89;100674.00;2091704;28;20455;-84
2021/12/11 02:47:46;;;;;;;47.43;43.93;;;;;;;6.54;86.52;100660.03;2091125;28;20826;-84
2021/12/11 02:48:53;;;;;;;48.27;44.67;;;;;;;6.58;86.25;100670.38;2090278;28;20454;-84
2021/12/11 02:50:01;;;;;;;45.93;42.70;;;;;;;6.22;86.42;100599.06;2090882;28;20456;-84
2021/12/11 02:51:11;;;;;;;43.77;40.67;;;;;;;6.50;86.10;100655.81;2090650;28;20542;-84
2021/12/11 02:52:20;;;;;;;46.47;43.17;;;;;;;6.48;85.84;100657.72;2089755;28;20463;-84
2021/12/11 02:53:27;;;;;;;47.00;43.33;;;;;;;6.72;86.43;100696.09;2092368;28;20519;-84
2021/12/11 02:54:33;;;;;;;45.20;41.60;;;;;;;6.49;86.58;100657.63;2090895;28;20470;-83
2021/12/11 02:55:38;;;;;;;45.53;42.23;;;;;;;6.61;86.26;100680.81;2088557;28;20474;-84
2021/12/11 02:56:45;;;;;;;46.10;42.83;;;;;;;6.63;86.03;100697.50;2090160;28;20454;-84
2021/12/11 02:57:49;;;;;;;45.10;41.70;;;;;;;6.59;85.87;100676.50;2092122;28;20450;-84
2021/12/11 02:58:57;;;;;;;44.17;40.93;;;;;;;6.30;86.46;100626.00;2090334;28;20502;-84
2021/12/11 03:00:08;;;;;;;46.43;43.03;;;;;;;6.49;86.66;100659.44;2090585;28;20473;-85
2021/12/11 03:01:22;;;;;;;44.80;41.70;;;;;;;5.77;86.37;100540.59;2091413;28;20516;-84
2021/12/11 03:02:26;;;;;;;45.27;42.00;;;;;;;6.68;86.83;100697.22;2092904;28;20460;-84
2021/12/11 03:03:33;;;;;;;49.23;45.97;;;;;;;6.69;86.22;100692.78;2088352;28;20474;-84
2021/12/11 03:04:37;;;;;;;46.20;43.03;;;;;;;5.95;85.89;100575.84;2089886;28;20480;-84
2021/12/11 03:05:46;;;;;;;48.43;45.20;;;;;;;6.60;86.32;100689.69;2091236;28;20470;-84
2021/12/11 03:06:49;;;;;;;48.17;44.67;;;;;;;6.67;86.68;100727.38;2089011;28;20473;-84
2021/12/11 03:07:53;;;;;;;49.33;45.70;;;;;;;6.66;86.39;100704.41;2090475;28;20500;-84
2021/12/11 03:08:58;;;;;;;46.33;43.13;;;;;;;6.52;86.09;100672.53;2090960;28;20544;-84
2021/12/11 03:10:00;;;;;;;44.87;41.77;;;;;;;6.66;86.78;100699.09;2089103;28;20489;-84
2021/12/11 03:11:05;;;;;;;47.40;43.93;;;;;;;6.38;86.74;100655.59;2089613;28;20473;-84
2021/12/11 03:12:10;;;;;;;45.87;42.57;;;;;;;6.66;86.63;100700.91;2090398;28;20466;-84
2021/12/11 03:13:13;;;;;;;52.90;49.40;;;;;;;6.52;86.61;100681.34;2091123;28;20494;-84
2021/12/11 03:14:18;;;;;;;47.03;43.83;;;;;;;6.59;86.78;100690.66;2091343;28;20462;-84
2021/12/11 03:15:20;;;;;;;44.80;41.87;;;;;;;6.43;86.48;100671.25;2090587;28;20450;-84
2021/12/11 03:16:23;;;;;;;48.47;45.13;;;;;;;6.67;86.62;100706.13;2090932;28;20459;-84
2021/12/11 03:17:27;;;;;;;48.57;45.40;;;;;;;6.26;86.72;100640.38;2090752;28;20481;-84
2021/12/11 03:18:28;;;;;;;48.10;44.80;;;;;;;6.67;86.83;100706.13;2088100;28;21008;-84
2021/12/11 03:19:32;;;;;;;50.17;46.70;;;;;;;6.67;86.34;100706.13;2090244;28;20482;-85
2021/12/11 03:20:36;;;;;;;51.30;47.90;;;;;;;6.49;86.24;100676.19;2092756;28;20454;-84
2021/12/11 03:21:38;;;;;;;41.57;38.60;;;;;;;6.44;86.53;100664.97;2090035;28;20489;-84
2021/12/11 03:22:41;;;;;;;41.60;38.67;;;;;;;6.03;86.68;100597.47;2090442;28;20533;-84
2021/12/11 03:23:44;;;;;;;43.07;40.03;;;;;;;6.16;86.57;100624.16;2090510;28;20485;-84
2021/12/11 03:24:48;;;;;;;41.27;38.57;;;;;;;6.66;86.38;100709.72;2090811;28;20450;-84
2021/12/11 03:25:49;;;;;;;42.07;39.13;;;;;;;6.26;86.72;100643.03;2091548;28;20467;-84
2021/12/11 03:26:53;;;;;;;43.57;40.53;;;;;;;5.78;86.52;100562.66;2089224;28;20961;-84
2021/12/11 03:27:58;;;;;;;42.07;39.17;;;;;;;6.65;86.40;100707.16;2092232;28;20207;-84
2021/12/11 03:28:58;;;;;;;43.67;40.67;;;;;;;6.43;86.05;100671.25;2090195;28;20543;-84
2021/12/11 03:30:00;;;;;;;43.47;40.43;;;;;;;6.43;86.36;100687.16;2089980;28;20458;-84
2021/12/11 03:31:05;;;;;;;41.33;38.33;;;;;;;5.37;86.05;100505.75;2090246;28;20219;-84
2021/12/11 03:32:10;;;;;;;41.93;39.13;;;;;;;6.63;86.02;100709.91;2090163;28;20454;-84
2021/12/11 03:33:15;;;;;;;40.60;37.73;;;;;;;6.16;86.46;100634.75;2090598;28;20593;-84
2021/12/11 03:34:23;;;;;;;41.73;38.43;;;;;;;6.36;86.65;100678.69;2088994;28;20545;-84
2021/12/11 03:35:25;;;;;;;38.93;36.43;;;;;;;6.51;86.45;100706.16;2089791;28;20459;-85
2021/12/11 03:36:30;;;;;;;39.13;36.53;;;;;;;6.39;86.02;100683.84;2091203;28;20518;-84
2021/12/11 03:37:32;;;;;;;42.33;39.27;;;;;;;6.61;85.97;100717.09;2088191;28;20591;-84
2021/12/11 03:38:34;;;;;;;40.80;38.03;;;;;;;6.38;85.82;100684.75;2090079;28;21939;-84
2021/12/11 03:39:41;;;;;;;40.10;37.10;;;;;;;5.49;85.88;100541.28;2090436;28;20466;-84
2021/12/11 03:40:45;;;;;;;40.93;38.13;;;;;;;5.79;86.50;100589.06;2090891;28;20953;-84
2021/12/11 03:41:51;;;;;;;41.50;38.27;;;;;;;6.35;86.20;100690.25;2091155;28;20450;-83
2021/12/11 03:42:58;;;;;;;39.20;36.50;;;;;;;6.58;86.45;100719.94;2090088;28;20468;-84
2021/12/11 03:43:59;;;;;;;39.90;36.97;;;;;;;6.30;86.70;100683.50;2091575;28;20545;-84
2021/12/11 03:45:02;;;;;;;39.70;37.10;;;;;;;6.07;86.83;100663.59;2089585;28;20474;-84
2021/12/11 03:46:07;;;;;;;41.23;38.23;;;;;;;6.58;86.96;100725.25;2092596;28;20286;-84
2021/12/11 03:47:12;;;;;;;41.60;38.40;;;;;;;6.45;86.77;100701.19;2088573;28;20539;-85
2021/12/11 03:48:20;;;;;;;40.73;38.03;;;;;;;6.22;87.14;100671.53;2090404;28;20475;-84
2021/12/11 03:49:22;;;;;;;39.97;37.13;;;;;;;6.37;87.01;100692.84;2088321;28;21215;-84
2021/12/11 03:50:29;;;;;;;40.90;38.07;;;;;;;6.58;86.95;100726.09;2090393;28;20462;-84
2021/12/11 03:51:32;;;;;;;40.57;37.70;;;;;;;6.37;87.19;100693.69;2092181;28;20469;-84
2021/12/11 03:52:34;;;;;;;40.03;37.20;;;;;;;5.81;87.50;100603.09;2090611;28;20518;-84
2021/12/11 03:53:35;;;;;;;40.17;37.30;;;;;;;5.11;86.84;100475.44;2088917;28;20489;-84
2021/12/11 03:54:39;;;;;;;41.97;38.93;;;;;;;6.51;87.20;100713.25;2090745;28;20460;-84
2021/12/11 03:55:46;;;;;;;39.23;36.50;;;;;;;6.59;87.23;100733.13;2092263;28;22243;-84
2021/12/11 03:56:49;;;;;;;41.43;38.43;;;;;;;6.59;87.75;100733.13;2090797;28;20546;-84
2021/12/11 03:57:57;;;;;;;40.77;37.80;;;;;;;5.55;86.82;100559.50;2089325;28;20470;-84
2021/12/11 03:58:58;;;;;;;41.53;38.37;;;;;;;6.59;87.61;100734.91;2090557;28;20458;-84
2021/12/11 03:59:59;;;;;;;40.67;37.47;;;;;;;6.20;87.58;100675.22;2090821;28;20457;-83
2021/12/11 04:01:07;;;;;;;41.80;38.50;;;;;;;6.51;87.08;100719.41;2089018;28;20470;-84
2021/12/11 04:02:12;;;;;;;41.87;38.77;;;;;;;6.59;87.42;100730.47;2090341;28;20721;-84
2021/12/11 04:03:17;;;;;;;40.73;37.53;;;;;;;6.30;87.56;100683.50;2090462;28;20521;-84
2021/12/11 04:04:24;;;;;;;41.07;38.03;;;;;;;6.37;87.82;100704.28;2090127;28;20456;-84
2021/12/11 04:05:25;;;;;;;39.83;36.93;;;;;;;6.19;87.94;100678.78;2088025;28;20948;-83
2021/12/11 04:06:29;;;;;;;37.87;35.23;;;;;;;6.22;87.56;100691.91;2091011;28;20450;-84
2021/12/11 04:07:35;;;;;;;39.53;36.73;;;;;;;6.57;88.10;100739.44;2089377;28;20207;-84
2021/12/11 04:08:41;;;;;;;42.10;38.83;;;;;;;6.57;88.26;100744.75;2090413;28;20465;-84
2021/12/11 04:09:42;;;;;;;38.70;35.70;;;;;;;6.32;87.40;100721.41;2091200;28;20474;-84
2021/12/11 04:10:46;;;;;;;38.77;35.83;;;;;;;6.47;87.72;100736.44;2092397;28;20548;-84
2021/12/11 04:11:52;;;;;;;37.13;34.23;;;;;;;5.88;88.50;100632.75;2089901;28;20954;-84
2021/12/11 04:12:56;;;;;;;36.33;33.73;;;;;;;6.53;88.06;100743.22;2092840;28;20474;-84
2021/12/11 04:14:00;;;;;;;40.40;37.27;;;;;;;6.22;87.89;100705.16;2091536;28;20467;-85
2021/12/11 04:15:03;;;;;;;37.80;35.03;;;;;;;6.46;88.29;100728.56;2091365;28;20466;-85
2021/12/11 04:16:05;;;;;;;1999.90;999.90;;;;;;;6.52;88.33;100741.50;2090277;28;20556;-84
2021/12/11 04:17:14;;;;;;;62.27;58.43;;;;;;;6.38;88.82;100726.34;2092761;28;20457;-84
2021/12/11 04:18:15;;;;;;;55.90;52.47;;;;;;;6.53;88.62;100749.38;2092561;28;20469;-84
2021/12/11 04:19:17;;;;;;;53.10;49.60;;;;;;;6.27;89.15;100711.03;2091109;28;20588;-85
2021/12/11 04:20:22;;;;;;;46.53;43.40;;;;;;;6.53;89.00;100749.38;2090604;28;20555;-84
2021/12/11 04:21:24;;;;;;;48.90;45.50;;;;;;;6.46;89.44;100744.50;2089701;28;20549;-84
2021/12/11 04:22:27;;;;;;;1999.90;999.90;;;;;;;5.18;88.67;100531.53;2090052;28;20474;-84
2021/12/11 04:23:28;;;;;;;81.83;73.17;;;;;;;6.53;89.34;100754.66;2091209;28;20949;-85
2021/12/11 04:24:31;;;;;;;78.53;74.13;;;;;;;5.32;89.23;100551.97;2088482;28;20905;-85
2021/12/11 04:25:36;;;;;;;50.67;47.27;;;;;;;6.28;89.67;100725.16;2091374;28;20246;-84
2021/12/11 04:26:39;;;;;;;48.03;44.83;;;;;;;6.56;89.45;100762.47;2088889;28;20956;-84
2021/12/11 04:27:40;;;;;;;60.23;56.47;;;;;;;6.55;89.21;100763.41;2092339;28;20454;-85
2021/12/11 04:28:46;;;;;;;62.10;58.37;;;;;;;6.42;89.77;100752.66;2090283;28;20522;-84
2021/12/11 04:29:49;;;;;;;56.67;53.07;;;;;;;6.33;90.04;100725.75;2090238;28;20877;-84
2021/12/11 04:31:02;;;;;;;38.07;35.27;;;;;;;6.48;89.78;100755.88;2090092;28;20484;-83
2021/12/11 04:32:03;;;;;;;44.47;41.37;;;;;;;6.57;89.98;100771.28;2090656;28;20466;-85
2021/12/11 04:33:07;;;;;;;36.77;34.13;;;;;;;6.33;89.57;100737.22;2090068;28;20462;-83
2021/12/11 04:34:10;;;;;;;38.07;35.07;;;;;;;5.21;89.46;100548.09;2090877;28;20446;-84
2021/12/11 04:35:15;;;;;;;42.13;39.23;;;;;;;6.38;89.87;100743.13;2090413;28;20493;-85
2021/12/11 04:36:21;;;;;;;50.50;47.33;;;;;;;6.21;89.88;100714.88;2089878;28;20473;-84
2021/12/11 04:37:28;;;;;;;66.83;62.83;;;;;;;6.39;89.60;100746.66;2089905;28;21166;-84
2021/12/11 04:38:30;;;;;;;79.13;74.53;;;;;;;6.57;89.95;100773.94;2089421;28;20453;-84
2021/12/11 04:39:36;;;;;;;76.23;71.83;;;;;;;6.34;90.34;100738.09;2087282;28;21151;-84
2021/12/11 04:40:40;;;;;;;55.37;51.90;;;;;;;6.51;90.28;100766.31;2087756;28;20462;-84
2021/12/11 04:41:53;;;;;;;55.50;51.90;;;;;;;6.60;89.87;100789.69;2091358;28;20505;-84
2021/12/11 04:43:00;;;;;;;58.07;54.60;;;;;;;6.31;89.75;100728.50;2091212;28;20492;-84
2021/12/11 04:44:05;;;;;;;80.07;75.67;;;;;;;6.39;89.86;100752.81;2088290;28;20455;-84
2021/12/11 04:45:10;;;;;;;89.43;84.43;;;;;;;5.76;90.15;100636.09;2088770;28;20490;-84
2021/12/11 04:46:12;;;;;;;78.27;73.93;;;;;;;6.01;90.31;100686.84;2089869;28;20929;-84
2021/12/11 04:47:29;;;;;;;83.27;78.70;;;;;;;6.63;90.83;100786.88;2090476;28;20505;-84
2021/12/11 04:48:40;;;;;;;72.13;68.17;;;;;;;6.63;89.84;100790.38;2090307;28;20943;-84
2021/12/11 04:49:53;;;;;;;67.80;63.47;;;;;;;6.62;90.11;100786.00;2091153;28;20465;-84
2021/12/11 04:51:00;;;;;;;55.93;52.43;;;;;;;6.64;90.07;100791.22;2088760;28;20493;-84
2021/12/11 04:52:07;;;;;;;51.73;48.67;;;;;;;6.53;89.00;100773.25;2089823;28;20544;-84
2021/12/11 04:53:24;;;;;;;53.20;50.23;;;;;;;6.42;88.97;100757.06;2090190;28;20466;-84
2021/12/11 04:54:38;;;;;;;52.87;49.03;;;;;;;6.52;89.58;100787.47;2092599;28;20469;-84
2021/12/11 04:55:55;;;;;;;48.33;45.13;;;;;;;6.50;89.62;100784.06;2090324;28;20442;-84
2021/12/11 04:58:43;;;;;;;40.17;37.47;;;;;;;6.24;89.93;100758.97;2088779;28;20195;-84
2021/12/11 04:59:55;;;;;;;38.53;36.00;;;;;;;6.39;89.75;100767.88;2090856;28;20465;-84
2021/12/11 05:01:10;;;;;;;36.87;33.97;;;;;;;6.57;89.48;100798.69;2090925;28;20506;-84
2021/12/11 05:02:42;;;;;;;44.70;41.90;;;;;;;6.07;89.35;100717.47;2091502;28;20462;-84
2021/12/11 05:04:06;;;;;;;37.53;34.77;;;;;;;6.56;89.18;100796.97;2093681;28;20536;-83